Tunnerville, South Dakota
Current Conditions -  °F | °C
As of 7:14 AM on Saturday 25 Oct 2014 (Local Time) from KCNB Reporting Station
Clear Clear  
Wind Chill: 10°   Ceiling: Unl
Heat Index: 10°   Visibility: 10mi
Dew Point:   Wind: 8mph
Humidity: 57%   Direction: 280°W
Pressure: 30.09"   Gusts: NA
Location:  44.7895°N, 96.7201°W
Report Text: KCNB 251214Z AUTO 28007KT 10SM CLR 10/02 A3009 RMK AO2 T01020020
Loading
Personal Weather Stations






























Interactive Weather Map
Tropical Storm Tracking
New forecast layout! Learn more

10-Day Weather Forecast

Advertisements
Track Severe Weather on mobile